This is the latest recevied weather packets stored in our database for station/object HS8AFA. If no packets are shown the sender has not sent any weather packets the latest 10 day(s).
| Time | Temp. | Humidity | Pressure | Rain* | Wind** | Luminosity | Snow |
|---|---|---|---|---|---|---|---|
| 1777852821 | 27.22° C | 100% | 1010.7 hPa | 0 mm | - | - | - |
| 1777849221 | 27.22° C | 100% | 1010.5 hPa | 0 mm | - | - | - |
| 1777848616 | 27.22° C | 100% | 1010.5 hPa | 0 mm | - | - | - |
| 1777848017 | 27.22° C | 100% | 1010.5 hPa | 0 mm | - | - | - |
| 1777846219 | 27.22° C | 100% | 1010.2 hPa | 0 mm | - | - | - |
| 1777845620 | 27.22° C | 100% | 1010.2 hPa | 0 mm | - | - | - |
| 1777841417 | 27.78° C | 100% | 1010.2 hPa | 0 mm | - | - | - |
| 1777840818 | 27.78° C | 100% | 1010.3 hPa | 0 mm | - | - | - |
| 1777839619 | 28.33° C | 100% | 1010.3 hPa | 0 mm | - | - | - |
| 1777839020 | 28.33° C | 100% | 1010.2 hPa | 0 mm | - | - | - |
| 1777837257 | 28.33° C | 100% | 1010.4 hPa | 0 mm | - | - | - |
| 1777835420 | 28.33° C | 100% | 1010.4 hPa | 0 mm | - | - | - |
| 1777833018 | 28.33° C | 100% | 1010.6 hPa | 0 mm | - | - | - |
| 1777827640 | 28.89° C | 100% | 1011.2 hPa | 0 mm | - | - | - |
| 1777826418 | 28.89° C | 100% | 1011.5 hPa | 0 mm | - | - | - |
| 1777823437 | 29.44° C | 100% | 1011.6 hPa | 0 mm | - | - | - |
| 1777816216 | 30.56° C | 100% | 1010.6 hPa | 0 mm | - | - | - |
| 1777814418 | 31.11° C | 100% | 1009.9 hPa | 0 mm | - | - | - |
| 1777813819 | 31.11° C | 100% | 1009.9 hPa | 0 mm | - | - | - |
| 1777806639 | 32.22° C | 100% | 1007.6 hPa | 0 mm | - | - | - |
| 1777805436 | 32.78° C | 100% | 1007.3 hPa | 0 mm | - | - | - |
| 1777804816 | 32.78° C | 100% | 1007.3 hPa | 0 mm | - | - | - |
| 1777798840 | 33.89° C | 100% | 1006.7 hPa | 0 mm | - | - | - |
| 1777795840 | 32.22° C | 100% | 1007.3 hPa | 0 mm | - | - | - |
| 1777795220 | 32.22° C | 100% | 1007.6 hPa | 0 mm | - | - | - |
* Rain latest hour (hover to see other rain measurements)
** Current wind speed in m/s (hover to see current wind gust speed)